createdAt,value
2022-10-12T00:01:17.040Z,100138.27
2022-10-12T00:03:45.276Z,100136.58
2022-10-12T00:06:15.592Z,100137.21
2022-10-12T00:08:45.626Z,100136.59
2022-10-12T00:11:23.529Z,100134.64
2022-10-12T00:13:52.519Z,100129.92
2022-10-12T00:16:22.615Z,100129.94
2022-10-12T00:18:56.253Z,100133.82
2022-10-12T00:21:25.955Z,100134.88
2022-10-12T00:23:57.773Z,100132.77
2022-10-12T00:26:27.191Z,100129.25
2022-10-12T00:28:58.950Z,100129.69
2022-10-12T00:31:28.579Z,100133.94
2022-10-12T00:34:01.567Z,100133.52
2022-10-12T00:36:36.117Z,100133.91
2022-10-12T00:39:07.053Z,100134.68
2022-10-12T00:41:39.735Z,100134.87
2022-10-12T00:44:46.786Z,100132.96
2022-10-12T00:47:35.780Z,100133.97
2022-10-12T00:50:07.603Z,100133.88
2022-10-12T00:52:43.338Z,100130.70
2022-10-12T00:55:17.368Z,100132.82
2022-10-12T00:57:48.619Z,100136.14
2022-10-12T01:00:19.256Z,100132.06
2022-10-12T01:02:50.327Z,100133.39
2022-10-12T01:05:20.124Z,100132.81
2022-10-12T01:07:48.396Z,100135.01
2022-10-12T01:10:17.724Z,100136.16
2022-10-12T01:12:49.842Z,100135.98
2022-10-12T01:15:18.508Z,100139.51
2022-10-12T01:18:18.015Z,100138.43
2022-10-12T01:21:07.801Z,100138.96
2022-10-12T01:23:53.998Z,100141.23
2022-10-12T01:26:49.901Z,100141.39
2022-10-12T01:29:44.835Z,100143.89
2022-10-12T01:32:33.390Z,100146.83
2022-10-12T01:35:24.045Z,100143.79
2022-10-12T01:38:07.541Z,100141.13
2022-10-12T01:40:57.053Z,100148.89
2022-10-12T01:43:35.391Z,100144.86
2022-10-12T01:46:12.847Z,100142.64
2022-10-12T01:48:43.217Z,100142.00
2022-10-12T01:51:17.199Z,100142.90
2022-10-12T01:53:56.134Z,100147.27
2022-10-12T01:56:57.383Z,100147.65
2022-10-12T01:59:54.823Z,100141.62
2022-10-12T02:02:49.122Z,100142.39
2022-10-12T02:05:44.728Z,100141.41
2022-10-12T02:08:45.617Z,100147.52
2022-10-12T02:11:17.594Z,100149.69
2022-10-12T02:13:55.347Z,100153.44
2022-10-12T02:16:28.974Z,100148.78
2022-10-12T02:19:01.024Z,100147.26
2022-10-12T02:21:35.424Z,100146.27
2022-10-12T02:24:08.334Z,100142.34
2022-10-12T02:26:41.525Z,100146.64
2022-10-12T02:29:16.349Z,100147.21
2022-10-12T02:32:02.650Z,100152.79
2022-10-12T02:34:58.742Z,100153.41
2022-10-12T02:37:54.088Z,100154.81
2022-10-12T02:40:36.899Z,100153.50
2022-10-12T02:43:40.687Z,100152.55
2022-10-12T02:46:11.553Z,100154.23
2022-10-12T02:48:42.119Z,100157.46
2022-10-12T02:51:12.265Z,100159.10
2022-10-12T02:53:40.691Z,100159.21
2022-10-12T02:56:14.981Z,100153.56
2022-10-12T02:58:44.890Z,100157.27
2022-10-12T03:01:14.299Z,100156.30
2022-10-12T03:03:43.186Z,100152.73
2022-10-12T03:06:12.009Z,100148.79
2022-10-12T03:08:40.450Z,100152.75
2022-10-12T03:11:12.742Z,100150.36
2022-10-12T03:13:41.040Z,100153.95
2022-10-12T03:16:11.438Z,100151.73
2022-10-12T03:18:40.253Z,100155.77
2022-10-12T03:21:08.686Z,100158.56
2022-10-12T03:23:37.585Z,100153.85
2022-10-12T03:26:06.274Z,100150.16
2022-10-12T03:28:34.646Z,100151.39
2022-10-12T03:31:03.645Z,100151.76
2022-10-12T03:33:31.889Z,100153.33
2022-10-12T03:36:01.303Z,100150.54
2022-10-12T03:38:29.538Z,100146.71
2022-10-12T03:40:58.631Z,100148.60
2022-10-12T03:43:29.224Z,100157.77
2022-10-12T03:45:57.373Z,100160.96
2022-10-12T03:48:25.563Z,100156.61
2022-10-12T03:50:53.770Z,100157.10
2022-10-12T03:53:21.881Z,100152.27
2022-10-12T03:55:50.066Z,100152.48
2022-10-12T03:58:19.091Z,100158.92
2022-10-12T04:00:47.349Z,100162.54
2022-10-12T04:03:15.513Z,100165.23
2022-10-12T04:05:43.682Z,100167.83
2022-10-12T04:08:12.088Z,100164.91
2022-10-12T04:10:40.253Z,100165.70
2022-10-12T04:13:08.487Z,100166.62
2022-10-12T04:15:40.817Z,100169.58
2022-10-12T04:18:09.010Z,100167.53
2022-10-12T04:20:37.423Z,100161.20
2022-10-12T04:23:05.656Z,100161.85
2022-10-12T04:25:33.862Z,100164.28
2022-10-12T04:28:01.994Z,100167.88
2022-10-12T04:30:30.188Z,100167.81
2022-10-12T04:32:58.465Z,100169.52
2022-10-12T04:35:26.739Z,100174.39
2022-10-12T04:37:55.023Z,100176.89
2022-10-12T04:40:23.761Z,100175.77
2022-10-12T04:42:52.587Z,100177.67
2022-10-12T04:45:20.758Z,100176.16
2022-10-12T04:47:49.036Z,100180.40
2022-10-12T04:50:17.261Z,100178.67
2022-10-12T04:52:45.537Z,100178.75
2022-10-12T04:55:13.837Z,100178.95
2022-10-12T04:57:41.941Z,100177.98
2022-10-12T05:00:10.682Z,100178.95
2022-10-12T05:02:38.948Z,100181.59
2022-10-12T05:05:07.446Z,100182.02
2022-10-12T05:07:35.795Z,100187.12
2022-10-12T05:10:04.699Z,100184.64
2022-10-12T05:12:32.823Z,100181.06
2022-10-12T05:15:00.932Z,100182.38
2022-10-12T05:17:29.672Z,100179.58
2022-10-12T05:19:57.927Z,100181.73
2022-10-12T05:22:26.097Z,100184.48
2022-10-12T05:24:54.396Z,100188.54
2022-10-12T05:27:23.041Z,100192.17
2022-10-12T05:29:51.264Z,100195.43
2022-10-12T05:32:19.594Z,100195.45
2022-10-12T05:34:47.867Z,100196.33
2022-10-12T05:37:16.139Z,100197.27
2022-10-12T05:39:44.577Z,100199.82
2022-10-12T05:42:12.778Z,100198.99
2022-10-12T05:44:40.886Z,100201.73
2022-10-12T05:47:10.066Z,100199.67
2022-10-12T05:49:38.282Z,100198.84
2022-10-12T05:52:06.557Z,100201.00
2022-10-12T05:54:34.770Z,100199.55
2022-10-12T05:57:03.454Z,100202.43
2022-10-12T05:59:31.749Z,100203.64
2022-10-12T06:02:00.074Z,100206.35
2022-10-12T06:04:28.418Z,100204.05
2022-10-12T06:06:56.599Z,100207.73
2022-10-12T06:09:24.875Z,100210.27
2022-10-12T06:11:53.017Z,100205.48
2022-10-12T06:14:21.176Z,100204.48
2022-10-12T06:16:53.747Z,100205.80
2022-10-12T06:19:23.002Z,100205.23
2022-10-12T06:21:51.249Z,100202.71
2022-10-12T06:24:19.436Z,100200.34
2022-10-12T06:26:47.720Z,100197.81
2022-10-12T06:29:15.925Z,100201.83
2022-10-12T06:31:48.997Z,100199.95
2022-10-12T06:34:19.890Z,100201.54
2022-10-12T06:36:49.793Z,100201.33
2022-10-12T06:39:18.098Z,100204.16
2022-10-12T06:41:46.965Z,100204.39
2022-10-12T06:44:15.165Z,100206.39
2022-10-12T06:46:43.309Z,100205.23
2022-10-12T06:49:11.749Z,100207.79
2022-10-12T06:51:39.974Z,100208.38
2022-10-12T06:54:08.113Z,100202.42
2022-10-12T06:56:38.376Z,100201.23
2022-10-12T06:59:06.542Z,100199.27
2022-10-12T07:01:34.760Z,100201.13
2022-10-12T07:04:03.005Z,100199.52
2022-10-12T07:06:33.101Z,100198.91
2022-10-12T07:09:02.304Z,100201.00
2022-10-12T07:11:30.584Z,100202.52
2022-10-12T07:13:58.920Z,100202.27
2022-10-12T07:16:27.115Z,100203.07
2022-10-12T07:18:55.302Z,100204.19
2022-10-12T07:21:23.579Z,100201.95
2022-10-12T07:23:53.094Z,100200.98
2022-10-12T07:26:21.298Z,100199.89
2022-10-12T07:28:49.567Z,100193.73
2022-10-12T07:31:17.781Z,100193.32
2022-10-12T07:33:46.069Z,100191.42
2022-10-12T07:36:17.093Z,100189.40
2022-10-12T07:38:49.905Z,100191.52
2022-10-12T07:41:18.843Z,100188.84
2022-10-12T07:43:47.227Z,100189.56
2022-10-12T07:46:15.567Z,100187.70
2022-10-12T07:48:49.784Z,100184.23
2022-10-12T07:51:19.462Z,100179.70
2022-10-12T07:53:50.934Z,100174.91
2022-10-12T07:56:19.169Z,100173.33
2022-10-12T07:58:52.926Z,100173.16
2022-10-12T08:01:23.704Z,100170.63
2022-10-12T08:03:55.379Z,100167.02
2022-10-12T08:06:30.451Z,100167.12
2022-10-12T08:09:00.366Z,100166.55
2022-10-12T08:11:29.446Z,100167.43
2022-10-12T08:13:57.653Z,100167.54
2022-10-12T08:16:25.812Z,100167.15
2022-10-12T08:18:54.045Z,100166.86
2022-10-12T08:21:22.331Z,100163.07
2022-10-12T08:23:52.723Z,100163.05
2022-10-12T08:26:21.038Z,100163.22
2022-10-12T08:28:49.327Z,100161.79
2022-10-12T08:31:18.105Z,100160.70
2022-10-12T08:33:46.553Z,100160.44
2022-10-12T08:36:14.849Z,100158.63
2022-10-12T08:38:48.860Z,100161.05
2022-10-12T08:41:23.512Z,100156.55
2022-10-12T08:44:16.086Z,100155.89
2022-10-12T08:46:44.613Z,100157.66
2022-10-12T08:49:23.899Z,100154.81
2022-10-12T08:51:59.373Z,100155.42
2022-10-12T08:54:39.368Z,100154.98
2022-10-12T08:57:17.654Z,100153.16
2022-10-12T08:59:47.327Z,100155.73
2022-10-12T09:02:37.562Z,100159.13
2022-10-12T09:05:10.303Z,100159.95
2022-10-12T09:08:12.767Z,100161.01
2022-10-12T09:11:05.765Z,100155.72
2022-10-12T09:14:03.266Z,100157.45
2022-10-12T09:16:35.194Z,100162.84
2022-10-12T09:19:13.284Z,100157.94
2022-10-12T09:21:42.815Z,100158.43
2022-10-12T09:24:19.113Z,100162.80
2022-10-12T09:26:52.291Z,100159.77
2022-10-12T09:29:35.874Z,100159.98
2022-10-12T09:33:00.993Z,100162.04
2022-10-12T09:35:29.304Z,100160.25
2022-10-12T09:37:57.611Z,100159.33
2022-10-12T09:40:31.262Z,100160.58
2022-10-12T09:43:02.190Z,100157.15
2022-10-12T09:45:34.313Z,100160.48
2022-10-12T09:48:08.365Z,100157.50
2022-10-12T09:50:55.503Z,100156.91
2022-10-12T09:53:34.239Z,100155.59
2022-10-12T09:56:11.833Z,100153.92
2022-10-12T09:59:01.085Z,100159.42
2022-10-12T10:01:32.442Z,100157.36
2022-10-12T10:04:30.501Z,100158.20
2022-10-12T10:07:19.347Z,100154.38
2022-10-12T10:10:03.120Z,100155.38
2022-10-12T10:12:31.867Z,100153.45
2022-10-12T10:15:01.221Z,100151.96
2022-10-12T10:17:32.782Z,100152.29
2022-10-12T10:20:05.783Z,100145.21
2022-10-12T10:22:34.030Z,100142.35
2022-10-12T10:25:02.965Z,100141.05
2022-10-12T10:27:37.488Z,100139.49
2022-10-12T10:30:30.176Z,100137.83
2022-10-12T10:33:19.778Z,100136.38
2022-10-12T10:36:20.513Z,100130.62
2022-10-12T10:39:02.265Z,100126.20
2022-10-12T10:41:39.038Z,100126.14
2022-10-12T10:44:25.440Z,100126.59
2022-10-12T10:46:56.516Z,100128.80
2022-10-12T10:50:08.362Z,100126.88
2022-10-12T10:52:37.551Z,100125.63
2022-10-12T10:55:11.867Z,100126.08
2022-10-12T10:57:45.607Z,100118.99
2022-10-12T11:00:37.996Z,100116.92
2022-10-12T11:03:23.212Z,100119.63
2022-10-12T11:05:58.267Z,100120.48
2022-10-12T11:08:30.843Z,100125.73
2022-10-12T11:11:04.219Z,100131.49
2022-10-12T11:13:44.972Z,100126.23
2022-10-12T11:16:37.896Z,100120.23
2022-10-12T11:19:15.535Z,100119.05
2022-10-12T11:21:51.003Z,100113.63
2022-10-12T11:24:28.719Z,100114.06
2022-10-12T11:27:03.209Z,100108.41
2022-10-12T11:29:31.725Z,100105.90
2022-10-12T11:32:16.205Z,100108.45
2022-10-12T11:34:55.198Z,100108.73
2022-10-12T11:37:46.056Z,100108.27
2022-10-12T11:40:41.547Z,100106.29
2022-10-12T11:43:21.559Z,100106.58
2022-10-12T11:45:54.706Z,100106.61
2022-10-12T11:48:29.242Z,100105.73
2022-10-12T11:51:03.945Z,100105.77
2022-10-12T11:53:43.515Z,100105.56
2022-10-12T11:56:20.959Z,100100.79
2022-10-12T11:59:02.267Z,100095.41
2022-10-12T12:01:49.362Z,100097.84
2022-10-12T12:04:41.585Z,100092.63
2022-10-12T12:07:23.035Z,100092.02
2022-10-12T12:09:54.563Z,100092.86
2022-10-12T12:12:26.003Z,100091.52
2022-10-12T12:14:54.246Z,100092.38
2022-10-12T12:17:22.395Z,100092.17
2022-10-12T12:20:02.540Z,100088.24
2022-10-12T12:22:52.436Z,100085.92
2022-10-12T12:25:31.717Z,100083.96
2022-10-12T12:28:17.149Z,100081.98
2022-10-12T12:30:59.792Z,100081.16
2022-10-12T12:33:30.348Z,100081.50
2022-10-12T12:36:05.308Z,100076.58
2022-10-12T12:38:47.572Z,100073.40
2022-10-12T12:41:21.507Z,100071.95
2022-10-12T12:43:58.944Z,100073.27
2022-10-12T12:46:56.083Z,100075.67
2022-10-12T12:49:44.846Z,100070.98
2022-10-12T12:52:28.337Z,100065.96
2022-10-12T12:55:18.295Z,100063.98
2022-10-12T12:58:02.894Z,100063.78
2022-10-12T13:00:58.959Z,100065.48
2022-10-12T13:03:45.437Z,100062.65
2022-10-12T13:06:37.983Z,100062.69
2022-10-12T13:09:25.286Z,100063.05
2022-10-12T13:12:38.413Z,100056.99
2022-10-12T13:15:41.693Z,100054.34
2022-10-12T13:18:45.178Z,100053.73
2022-10-12T13:21:15.926Z,100052.27
2022-10-12T13:23:48.621Z,100052.68
2022-10-12T13:26:23.990Z,100055.58
2022-10-12T13:28:54.232Z,100057.54
2022-10-12T13:31:34.938Z,100059.85
2022-10-12T13:34:16.560Z,100057.98
2022-10-12T13:37:01.761Z,100055.73
2022-10-12T13:39:38.726Z,100057.70
2022-10-12T13:42:07.882Z,100060.58
2022-10-12T13:44:36.719Z,100055.13
2022-10-12T13:47:23.529Z,100051.91
2022-10-12T13:49:52.779Z,100049.08
2022-10-12T13:52:29.650Z,100050.17
2022-10-12T13:55:01.524Z,100045.81
2022-10-12T13:57:31.979Z,100046.35
2022-10-12T14:00:08.503Z,100049.71
2022-10-12T14:02:36.759Z,100045.84
2022-10-12T14:05:19.719Z,100049.63
2022-10-12T14:07:51.670Z,100047.52
2022-10-12T14:10:36.646Z,100047.48
2022-10-12T14:13:06.372Z,100050.92
2022-10-12T14:15:38.528Z,100046.55
2022-10-12T14:18:33.413Z,100046.70
2022-10-12T14:21:20.374Z,100043.72
2022-10-12T14:23:51.974Z,100042.16
2022-10-12T14:26:37.027Z,100041.43
2022-10-12T14:29:30.654Z,100042.11
2022-10-12T14:32:04.999Z,100044.05
2022-10-12T14:34:42.526Z,100044.89
2022-10-12T14:37:13.614Z,100043.90
2022-10-12T14:39:43.893Z,100041.39
2022-10-12T14:42:30.821Z,100038.30
2022-10-12T14:45:00.565Z,100037.92
2022-10-12T14:47:38.459Z,100037.16
2022-10-12T14:50:09.867Z,100034.39
2022-10-12T14:53:03.728Z,100031.06
2022-10-12T14:55:34.319Z,100031.16
2022-10-12T14:58:08.352Z,100031.98
2022-10-12T15:00:38.754Z,100036.55
2022-10-12T15:03:07.105Z,100037.48
2022-10-12T15:05:35.375Z,100038.91
2022-10-12T15:08:09.394Z,100041.25
2022-10-12T15:10:37.858Z,100040.48
2022-10-12T15:13:06.090Z,100039.52
2022-10-12T15:15:43.008Z,100036.85
2022-10-12T15:18:11.630Z,100041.27
2022-10-12T15:20:43.245Z,100042.45
2022-10-12T15:23:15.714Z,100041.21
2022-10-12T15:25:52.642Z,100041.16
2022-10-12T15:28:22.672Z,100043.65
2022-10-12T15:31:16.399Z,100044.09
2022-10-12T15:33:41.281Z,100045.80
2022-10-12T15:36:10.529Z,100047.22
2022-10-12T15:38:39.403Z,100049.20
2022-10-12T15:41:17.404Z,100048.50
2022-10-12T15:43:45.629Z,100050.63
2022-10-12T15:46:13.824Z,100050.90
2022-10-12T15:48:44.152Z,100052.59
2022-10-12T15:51:24.587Z,100050.42
2022-10-12T15:53:54.217Z,100051.40
2022-10-12T15:56:23.211Z,100050.12
2022-10-12T15:58:52.632Z,100055.27
2022-10-12T16:01:21.516Z,100055.71
2022-10-12T16:03:50.634Z,100055.52
2022-10-12T16:06:19.426Z,100057.15
2022-10-12T16:08:47.687Z,100055.95
2022-10-12T16:11:17.676Z,100058.48
2022-10-12T16:13:53.864Z,100058.95
2022-10-12T16:16:25.254Z,100062.86
2022-10-12T16:18:54.327Z,100064.88
2022-10-12T16:21:22.581Z,100062.13
2022-10-12T16:23:50.751Z,100059.97
2022-10-12T16:26:18.986Z,100063.80
2022-10-12T16:28:47.236Z,100065.36
2022-10-12T16:31:18.104Z,100062.59
2022-10-12T16:33:46.571Z,100064.22
2022-10-12T16:36:17.125Z,100066.70
2022-10-12T16:38:45.885Z,100066.36
2022-10-12T16:41:17.105Z,100069.55
2022-10-12T16:43:45.316Z,100068.34
2022-10-12T16:46:13.514Z,100065.55
2022-10-12T16:48:41.711Z,100064.95
2022-10-12T16:51:11.595Z,100069.83
2022-10-12T16:53:42.489Z,100069.64
2022-10-12T16:56:10.888Z,100070.89
2022-10-12T16:58:39.309Z,100070.06
2022-10-12T17:01:12.337Z,100074.27
2022-10-12T17:03:40.772Z,100075.39
2022-10-12T17:06:10.035Z,100077.20
2022-10-12T17:08:39.600Z,100079.88
2022-10-12T17:11:10.946Z,100083.97
2022-10-12T17:13:44.055Z,100081.65
2022-10-12T17:16:34.099Z,100080.07
2022-10-12T17:19:03.670Z,100080.04
2022-10-12T17:21:32.079Z,100078.36
2022-10-12T17:24:01.935Z,100076.67
2022-10-12T17:26:30.241Z,100079.84
2022-10-12T17:28:58.517Z,100081.55
2022-10-12T17:31:26.774Z,100080.48
2022-10-12T17:33:55.128Z,100079.63
2022-10-12T17:36:27.870Z,100084.70
2022-10-12T17:38:58.738Z,100086.86
2022-10-12T17:41:28.725Z,100085.70
2022-10-12T17:43:57.995Z,100085.51
2022-10-12T17:46:26.627Z,100085.41
2022-10-12T17:48:56.256Z,100088.09
2022-10-12T17:51:24.465Z,100086.52
2022-10-12T17:53:52.675Z,100086.01
2022-10-12T17:56:21.004Z,100084.20
2022-10-12T17:58:57.486Z,100084.89
2022-10-12T18:01:27.339Z,100080.81
2022-10-12T18:03:56.521Z,100081.63
2022-10-12T18:06:25.198Z,100082.54
2022-10-12T18:08:53.509Z,100084.83
2022-10-12T18:11:22.431Z,100084.58
2022-10-12T18:13:53.713Z,100086.25
2022-10-12T18:16:27.574Z,100087.73
2022-10-12T18:18:58.127Z,100085.13
2022-10-12T18:21:27.806Z,100081.61
2022-10-12T18:23:56.097Z,100081.82
2022-10-12T18:26:26.744Z,100084.14
2022-10-12T18:28:55.925Z,100085.05
2022-10-12T18:31:26.567Z,100084.94
2022-10-12T18:33:56.732Z,100083.48
2022-10-12T18:36:26.666Z,100085.55
2022-10-12T18:38:54.994Z,100086.00
2022-10-12T18:41:26.005Z,100082.26
2022-10-12T18:43:58.823Z,100084.24
2022-10-12T18:46:29.656Z,100082.94
2022-10-12T18:48:58.534Z,100084.61
2022-10-12T18:51:29.886Z,100082.77
2022-10-12T18:53:59.016Z,100080.70
2022-10-12T18:56:29.441Z,100077.45
2022-10-12T18:59:00.137Z,100076.30
2022-10-12T19:01:30.583Z,100072.35
2022-10-12T19:04:00.920Z,100073.05
2022-10-12T19:06:32.849Z,100077.72
2022-10-12T19:09:01.979Z,100077.63
2022-10-12T19:11:31.330Z,100077.66
2022-10-12T19:14:06.049Z,100072.02
2022-10-12T19:16:35.816Z,100075.98
2022-10-12T19:19:18.230Z,100074.02
2022-10-12T19:21:51.389Z,100074.80
2022-10-12T19:24:21.277Z,100078.51
2022-10-12T19:26:49.682Z,100079.48
2022-10-12T19:29:17.996Z,100079.08
2022-10-12T19:31:48.368Z,100078.13
2022-10-12T19:34:20.268Z,100077.94
2022-10-12T19:36:50.288Z,100080.09
2022-10-12T19:39:22.042Z,100080.79
2022-10-12T19:41:51.508Z,100083.29
2022-10-12T19:44:20.550Z,100081.22
2022-10-12T19:46:49.608Z,100082.89
2022-10-12T19:49:19.594Z,100084.54
2022-10-12T19:51:47.920Z,100086.16
2022-10-12T19:54:16.741Z,100086.79
2022-10-12T19:56:45.731Z,100086.95
2022-10-12T19:59:13.973Z,100086.70
2022-10-12T20:01:48.011Z,100084.90
2022-10-12T20:04:17.030Z,100085.73
2022-10-12T20:06:45.235Z,100083.48
2022-10-12T20:09:13.623Z,100084.16
2022-10-12T20:11:42.133Z,100085.32
2022-10-12T20:14:11.120Z,100087.90
2022-10-12T20:16:39.386Z,100088.84
2022-10-12T20:19:08.282Z,100084.48
2022-10-12T20:21:36.801Z,100085.48
2022-10-12T20:24:10.135Z,100085.07
2022-10-12T20:26:38.966Z,100087.48
2022-10-12T20:29:07.220Z,100090.42
2022-10-12T20:31:35.887Z,100087.44
2022-10-12T20:34:04.321Z,100088.89
2022-10-12T20:36:32.570Z,100087.80
2022-10-12T20:39:00.788Z,100088.67
2022-10-12T20:41:30.888Z,100087.67
2022-10-12T20:44:00.841Z,100089.42
2022-10-12T20:46:29.962Z,100083.40
2022-10-12T20:49:01.408Z,100084.56
2022-10-12T20:51:36.227Z,100086.09
2022-10-12T20:54:06.105Z,100085.11
2022-10-12T20:56:34.923Z,100086.38
2022-10-12T20:59:03.185Z,100085.99
2022-10-12T21:01:31.382Z,100086.61
2022-10-12T21:03:59.679Z,100084.73
2022-10-12T21:06:28.808Z,100083.49
2022-10-12T21:08:58.070Z,100083.70
2022-10-12T21:11:28.496Z,100085.33
2022-10-12T21:13:56.760Z,100081.89
2022-10-12T21:16:26.917Z,100082.22
2022-10-12T21:18:55.976Z,100083.92
2022-10-12T21:21:24.768Z,100083.17
2022-10-12T21:23:56.053Z,100079.40
2022-10-12T21:26:29.577Z,100083.02
2022-10-12T21:29:00.957Z,100078.52
2022-10-12T21:31:32.594Z,100080.08
2022-10-12T21:34:03.751Z,100081.06
2022-10-12T21:36:35.557Z,100082.20
2022-10-12T21:39:09.713Z,100083.04
2022-10-12T21:41:38.588Z,100080.23
2022-10-12T21:44:07.684Z,100080.86
2022-10-12T21:46:36.415Z,100079.15
2022-10-12T21:49:08.217Z,100078.81
2022-10-12T21:51:38.027Z,100079.20
2022-10-12T21:54:07.126Z,100076.25
2022-10-12T21:56:36.990Z,100075.02
2022-10-12T21:59:06.665Z,100072.02
2022-10-12T22:01:38.375Z,100070.05
2022-10-12T22:04:11.764Z,100068.58
2022-10-12T22:06:41.063Z,100063.60
2022-10-12T22:09:15.435Z,100061.64
2022-10-12T22:11:44.143Z,100060.95
2022-10-12T22:14:16.231Z,100057.45
2022-10-12T22:16:45.048Z,100060.72
2022-10-12T22:19:15.678Z,100063.04
2022-10-12T22:21:43.895Z,100058.46
2022-10-12T22:24:12.364Z,100059.23
2022-10-12T22:26:40.700Z,100062.25
2022-10-12T22:29:10.621Z,100058.09
2022-10-12T22:31:41.295Z,100059.11
2022-10-12T22:34:11.462Z,100058.52
2022-10-12T22:36:39.683Z,100054.45
2022-10-12T22:39:07.961Z,100055.22
2022-10-12T22:41:36.198Z,100054.45
2022-10-12T22:44:04.573Z,100051.09
2022-10-12T22:46:32.768Z,100050.46
2022-10-12T22:49:02.981Z,100054.62
2022-10-12T22:51:39.225Z,100051.06
2022-10-12T22:54:08.865Z,100052.64
2022-10-12T22:56:39.771Z,100054.26
2022-10-12T22:59:12.063Z,100051.44
2022-10-12T23:01:40.343Z,100056.23
2022-10-12T23:04:09.072Z,100059.34
2022-10-12T23:06:37.282Z,100058.29
2022-10-12T23:09:05.617Z,100057.27
2022-10-12T23:11:33.872Z,100052.40
2022-10-12T23:14:02.051Z,100054.64
2022-10-12T23:16:34.089Z,100060.05
2022-10-12T23:19:05.887Z,100062.88
2022-10-12T23:21:34.920Z,100057.44
2022-10-12T23:24:05.339Z,100054.45
2022-10-12T23:26:34.474Z,100053.37
2022-10-12T23:29:03.991Z,100052.17
2022-10-12T23:31:32.739Z,100052.00
2022-10-12T23:34:05.035Z,100054.20
2022-10-12T23:36:35.381Z,100054.63
2022-10-12T23:39:05.394Z,100057.80
2022-10-12T23:41:33.679Z,100059.54
2022-10-12T23:44:01.906Z,100062.48
2022-10-12T23:46:30.899Z,100069.11
2022-10-12T23:49:00.247Z,100071.65
2022-10-12T23:51:28.570Z,100077.33
2022-10-12T23:53:56.875Z,100077.20
2022-10-12T23:56:25.372Z,100073.28
2022-10-12T23:58:53.948Z,100071.66
